Time;durP1;ratioP1;P1;durP2;ratioP2;P2;SDS_P1;SDS_P2;PMS_P1;PMS_P2;Temp;Humidity;BMP_temperature;BMP_pressure;BME280_temperature;BME280_humidity;BME280_pressure;Samples;Min_cycle;Max_cycle;Signal;HPM_P1;HPM_P2
2023/11/16 00:00:56;;;;;;;2.23;1.07;;;11.30;91.00;;;;;;5069038;28;20814;-47
2023/11/16 00:03:24;;;;;;;3.90;1.60;;;11.40;91.00;;;;;;5062989;28;20460;-46
2023/11/16 00:05:55;;;;;;;6.30;1.63;;;11.30;91.00;;;;;;5069404;28;20469;-46
2023/11/16 00:08:25;;;;;;;4.57;1.60;;;11.30;91.00;;;;;;5066453;28;20955;-45
2023/11/16 00:10:54;;;;;;;4.80;1.33;;;11.30;91.00;;;;;;5063723;28;20974;-45
2023/11/16 00:13:24;;;;;;;3.90;1.33;;;11.30;91.00;;;;;;5067505;28;20436;-45
2023/11/16 00:15:52;;;;;;;4.87;1.33;;;11.30;91.00;;;;;;5066927;28;20484;-46
2023/11/16 00:18:20;;;;;;;3.00;1.30;;;11.30;90.90;;;;;;5066430;28;20454;-45
2023/11/16 00:20:48;;;;;;;3.43;1.40;;;11.30;90.90;;;;;;5065540;28;20453;-45
2023/11/16 00:23:17;;;;;;;4.53;1.40;;;11.30;90.90;;;;;;5067194;28;20449;-45
2023/11/16 00:25:46;;;;;;;3.73;1.70;;;11.30;90.90;;;;;;5065585;28;20976;-45
2023/11/16 00:28:16;;;;;;;2.40;1.10;;;11.30;90.80;;;;;;5066253;28;20426;-46
2023/11/16 00:30:44;;;;;;;2.90;1.40;;;11.30;90.90;;;;;;5065102;28;20455;-45
2023/11/16 00:33:13;;;;;;;5.00;1.50;;;11.30;90.90;;;;;;5063822;28;20479;-46
2023/11/16 00:35:41;;;;;;;4.10;1.50;;;11.30;90.90;;;;;;5065692;28;20551;-47
2023/11/16 00:38:10;;;;;;;3.90;1.57;;;11.30;90.90;;;;;;5069846;28;20822;-46
2023/11/16 00:40:42;;;;;;;3.67;1.20;;;11.30;90.80;;;;;;5063990;28;20606;-45
2023/11/16 00:43:12;;;;;;;2.93;1.00;;;11.30;90.90;;;;;;5069819;28;20781;-45
2023/11/16 00:45:41;;;;;;;2.10;1.30;;;11.30;90.90;;;;;;5062270;28;20473;-46
2023/11/16 00:48:09;;;;;;;4.00;1.50;;;11.30;90.90;;;;;;5067737;28;20915;-46
2023/11/16 00:50:38;;;;;;;2.60;1.40;;;11.30;90.90;;;;;;5067147;28;20470;-47
2023/11/16 00:53:06;;;;;;;3.97;1.43;;;11.30;90.90;;;;;;5067344;28;20421;-47
2023/11/16 00:55:34;;;;;;;3.20;1.40;;;11.30;90.80;;;;;;5063568;28;20839;-45
2023/11/16 00:58:02;;;;;;;6.33;1.57;;;11.20;90.80;;;;;;5065970;28;20441;-47
2023/11/16 01:00:35;;;;;;;6.80;1.60;;;11.20;90.70;;;;;;5066159;28;20460;-46
2023/11/16 01:03:07;;;;;;;3.50;1.30;;;11.20;90.70;;;;;;5070215;28;20427;-47
2023/11/16 01:05:35;;;;;;;3.20;1.40;;;11.20;90.80;;;;;;5064814;28;20482;-48
2023/11/16 01:08:09;;;;;;;2.80;1.40;;;11.20;90.80;;;;;;5069541;28;20459;-47
2023/11/16 01:10:37;;;;;;;2.73;1.17;;;11.20;90.80;;;;;;5061036;28;20570;-46
2023/11/16 01:13:07;;;;;;;3.40;2.13;;;11.20;90.80;;;;;;5066551;28;20974;-47
2023/11/16 01:15:38;;;;;;;2.40;1.23;;;11.20;90.70;;;;;;5062834;28;20878;-46
2023/11/16 01:18:07;;;;;;;2.17;1.17;;;11.20;90.70;;;;;;5065666;28;20918;-46
2023/11/16 01:20:36;;;;;;;2.03;1.30;;;11.20;90.70;;;;;;5063481;28;20468;-47
2023/11/16 01:23:11;;;;;;;4.43;1.70;;;11.20;90.80;;;;;;5069107;28;20446;-45
2023/11/16 01:25:40;;;;;;;3.33;1.40;;;11.20;90.80;;;;;;5063642;28;20886;-47
2023/11/16 01:28:10;;;;;;;2.03;1.20;;;11.20;90.70;;;;;;5068588;28;20504;-47
2023/11/16 01:30:40;;;;;;;3.47;1.50;;;11.20;90.80;;;;;;5063369;28;20459;-46
2023/11/16 01:33:08;;;;;;;3.17;1.30;;;11.20;90.70;;;;;;5066652;28;20438;-47
2023/11/16 01:35:39;;;;;;;4.93;1.30;;;11.20;90.70;;;;;;5061331;27;20474;-47
2023/11/16 01:38:07;;;;;;;2.60;1.10;;;11.20;90.70;;;;;;5067313;28;20445;-46
2023/11/16 01:40:40;;;;;;;3.20;1.07;;;11.20;90.70;;;;;;5064269;28;21057;-47
2023/11/16 01:43:09;;;;;;;2.37;1.40;;;11.20;90.70;;;;;;5065368;28;20483;-46
2023/11/16 01:45:37;;;;;;;5.07;1.53;;;11.20;90.80;;;;;;5060509;28;20729;-46
2023/11/16 01:48:08;;;;;;;4.13;1.10;;;11.20;91.10;;;;;;5066172;28;21046;-46
2023/11/16 01:50:39;;;;;;;1.80;1.20;;;11.20;90.70;;;;;;5062552;28;20479;-46
2023/11/16 01:53:10;;;;;;;4.10;1.40;;;11.20;90.70;;;;;;5066326;28;20456;-46
2023/11/16 01:55:40;;;;;;;4.83;1.60;;;11.20;90.70;;;;;;5060580;28;20477;-44
2023/11/16 01:58:10;;;;;;;3.90;1.30;;;11.20;90.70;;;;;;5065150;28;20443;-46
2023/11/16 02:00:41;;;;;;;2.53;1.00;;;11.20;90.80;;;;;;5062041;28;20471;-47
2023/11/16 02:03:11;;;;;;;2.13;1.30;;;11.20;90.80;;;;;;5066343;28;20491;-47
2023/11/16 02:05:40;;;;;;;1.23;0.80;;;11.20;90.80;;;;;;5060256;28;20994;-46
2023/11/16 02:08:09;;;;;;;4.27;1.50;;;11.10;90.80;;;;;;5067013;28;20518;-46
2023/11/16 02:10:38;;;;;;;4.37;1.93;;;11.20;90.70;;;;;;5060539;28;21940;-47
2023/11/16 02:13:17;;;;;;;2.63;1.27;;;11.20;90.70;;;;;;5065379;28;20446;-46
2023/11/16 02:15:46;;;;;;;1.90;1.23;;;11.20;90.70;;;;;;5063159;28;20558;-45
2023/11/16 02:18:16;;;;;;;4.00;1.10;;;11.10;90.70;;;;;;5065921;28;20446;-44
2023/11/16 02:20:46;;;;;;;4.27;1.73;;;11.10;91.20;;;;;;5081024;28;20882;-45
2023/11/16 02:23:16;;;;;;;3.73;1.33;;;11.10;90.70;;;;;;5066772;28;20443;-46
2023/11/16 02:25:45;;;;;;;2.17;1.10;;;11.10;91.20;;;;;;5062503;28;21060;-45
2023/11/16 02:28:14;;;;;;;3.40;1.23;;;11.10;90.70;;;;;;5066292;28;20509;-46
2023/11/16 02:30:42;;;;;;;5.20;1.27;;;11.20;90.70;;;;;;5067111;28;20475;-46
2023/11/16 02:33:10;;;;;;;1.57;1.00;;;11.20;90.70;;;;;;5063868;28;20447;-44
2023/11/16 02:35:38;;;;;;;5.87;1.53;;;11.10;90.70;;;;;;5062122;28;20474;-46
2023/11/16 02:38:07;;;;;;;4.23;1.50;;;11.10;90.70;;;;;;5065991;28;20500;-46
2023/11/16 02:40:36;;;;;;;1.97;0.90;;;11.20;90.70;;;;;;5061575;28;20540;-45
2023/11/16 02:43:05;;;;;;;1.87;0.90;;;11.10;90.70;;;;;;5064943;28;20431;-44
2023/11/16 02:45:34;;;;;;;1.60;1.13;;;11.10;90.70;;;;;;5061883;28;20967;-45
2023/11/16 02:48:04;;;;;;;3.10;0.90;;;11.10;90.70;;;;;;5065668;28;20551;-44
2023/11/16 02:50:34;;;;;;;3.10;1.20;;;11.10;90.70;;;;;;5060829;28;20475;-45
2023/11/16 02:53:03;;;;;;;3.80;1.40;;;11.10;90.70;;;;;;5064782;28;20439;-46
2023/11/16 02:55:34;;;;;;;2.60;1.03;;;11.10;90.70;;;;;;5061012;28;20819;-44
2023/11/16 02:58:04;;;;;;;2.47;1.50;;;11.10;90.70;;;;;;5058769;28;21033;-45
2023/11/16 03:00:32;;;;;;;3.17;1.30;;;11.10;90.70;;;;;;5062774;28;21280;-45
2023/11/16 03:03:02;;;;;;;3.67;1.10;;;11.10;90.70;;;;;;5065959;28;20504;-45
2023/11/16 03:05:33;;;;;;;7.43;1.30;;;11.10;90.60;;;;;;5064061;28;20468;-45
2023/11/16 03:08:02;;;;;;;2.87;1.10;;;11.10;90.60;;;;;;5067450;28;20487;-46
2023/11/16 03:10:32;;;;;;;6.20;1.10;;;11.10;90.70;;;;;;5060043;28;20481;-45
2023/11/16 03:13:03;;;;;;;4.30;1.93;;;11.10;90.70;;;;;;5059840;28;20440;-45
2023/11/16 03:15:34;;;;;;;3.00;1.40;;;11.10;90.70;;;;;;5069167;28;20462;-45
2023/11/16 03:18:03;;;;;;;2.70;1.00;;;11.10;90.70;;;;;;5063891;28;20506;-44
2023/11/16 03:20:31;;;;;;;1.70;1.30;;;11.10;90.70;;;;;;5061535;28;21062;-46
2023/11/16 03:23:01;;;;;;;2.13;1.77;;;11.10;90.70;;;;;;5071423;28;20930;-46
2023/11/16 03:25:32;;;;;;;3.97;1.07;;;11.00;90.70;;;;;;5065959;28;20479;-47
2023/11/16 03:28:00;;;;;;;2.40;1.07;;;11.10;90.60;;;;;;5063064;28;20516;-45
2023/11/16 03:30:29;;;;;;;2.37;1.40;;;11.10;90.70;;;;;;5067438;28;20481;-46
2023/11/16 03:33:00;;;;;;;4.03;1.23;;;11.10;90.60;;;;;;5068050;28;20453;-47
2023/11/16 03:35:28;;;;;;;4.60;1.23;;;11.10;90.60;;;;;;5064591;28;20568;-47
2023/11/16 03:37:56;;;;;;;3.53;1.00;;;11.00;90.60;;;;;;5067756;28;20452;-46
2023/11/16 03:40:25;;;;;;;2.50;1.30;;;11.00;91.10;;;;;;5065014;28;20468;-46
2023/11/16 03:42:53;;;;;;;3.80;1.40;;;11.10;90.60;;;;;;5066346;28;20482;-46
2023/11/16 03:45:21;;;;;;;2.57;1.13;;;11.00;90.60;;;;;;5068589;28;20508;-45
2023/11/16 03:47:49;;;;;;;3.73;1.57;;;11.10;90.70;;;;;;5061437;28;20478;-45
2023/11/16 03:50:19;;;;;;;2.63;1.20;;;11.10;90.70;;;;;;5067157;28;20896;-46
2023/11/16 03:52:47;;;;;;;2.17;1.40;;;11.10;90.60;;;;;;5068597;28;20799;-46
2023/11/16 03:55:15;;;;;;;4.70;1.00;;;11.00;90.60;;;;;;5067627;28;20486;-46
2023/11/16 03:57:44;;;;;;;2.13;1.53;;;11.00;90.60;;;;;;5067338;28;20445;-46
2023/11/16 04:00:18;;;;;;;2.13;1.00;;;11.00;90.60;;;;;;5067270;28;21056;-46
2023/11/16 04:02:48;;;;;;;2.93;1.10;;;11.00;90.60;;;;;;5066765;28;20442;-46
2023/11/16 04:05:18;;;;;;;4.07;1.20;;;11.00;90.60;;;;;;5064289;28;20467;-46
2023/11/16 04:07:50;;;;;;;4.67;1.80;;;11.00;90.60;;;;;;5068005;28;20468;-46
2023/11/16 04:10:18;;;;;;;4.07;1.60;;;11.00;90.60;;;;;;5065516;28;20491;-45
2023/11/16 04:12:46;;;;;;;2.20;1.37;;;11.00;90.60;;;;;;5068832;28;20442;-46
2023/11/16 04:15:17;;;;;;;4.03;1.17;;;11.00;90.60;;;;;;5068578;28;20500;-46
2023/11/16 04:17:46;;;;;;;3.07;1.03;;;11.00;90.50;;;;;;5067676;28;20989;-47
2023/11/16 04:20:14;;;;;;;2.37;1.27;;;11.00;90.50;;;;;;5065980;28;20499;-46
2023/11/16 04:22:43;;;;;;;2.07;1.67;;;11.00;90.60;;;;;;5066983;28;20826;-48
2023/11/16 04:25:19;;;;;;;3.10;0.90;;;11.00;90.60;;;;;;5064741;28;20482;-44
2023/11/16 04:27:48;;;;;;;2.03;1.20;;;11.00;90.60;;;;;;5068430;28;20449;-46
2023/11/16 04:30:18;;;;;;;3.57;1.33;;;11.00;90.60;;;;;;5070963;28;20459;-46
2023/11/16 04:32:46;;;;;;;3.40;1.60;;;11.00;90.80;;;;;;5072082;28;21144;-46
2023/11/16 04:35:15;;;;;;;2.87;1.17;;;11.00;90.50;;;;;;5070925;28;20487;-47
2023/11/16 04:37:43;;;;;;;2.83;1.40;;;11.00;90.50;;;;;;5067302;28;20453;-47
2023/11/16 04:40:16;;;;;;;1.93;1.13;;;10.90;90.50;;;;;;5064988;28;20475;-46
2023/11/16 04:42:44;;;;;;;2.43;1.10;;;11.00;90.60;;;;;;5065451;28;20447;-47
2023/11/16 04:45:14;;;;;;;1.97;1.03;;;11.00;90.50;;;;;;5068040;28;20461;-47
2023/11/16 04:47:44;;;;;;;2.13;1.30;;;11.00;90.50;;;;;;5068326;28;20454;-45
2023/11/16 04:50:16;;;;;;;3.20;1.50;;;11.00;90.50;;;;;;5065094;28;20489;-46
2023/11/16 04:52:44;;;;;;;2.10;1.30;;;10.90;90.50;;;;;;5066622;28;20412;-47
2023/11/16 04:55:13;;;;;;;1.53;1.13;;;10.90;90.50;;;;;;5066802;28;20474;-45
2023/11/16 04:57:45;;;;;;;2.33;1.00;;;11.00;90.40;;;;;;5068084;28;20461;-46
2023/11/16 05:00:15;;;;;;;2.43;1.20;;;10.90;90.40;;;;;;5067679;28;20553;-46
2023/11/16 05:02:43;;;;;;;2.00;0.93;;;10.90;90.30;;;;;;5066305;28;20991;-47
2023/11/16 05:05:12;;;;;;;2.40;1.10;;;10.90;90.40;;;;;;5063836;28;20456;-47
2023/11/16 05:07:40;;;;;;;4.93;1.00;;;10.90;90.40;;;;;;5066609;28;20841;-46
2023/11/16 05:10:10;;;;;;;1.67;0.80;;;10.90;90.40;;;;;;5064807;28;20477;-47
2023/11/16 05:12:39;;;;;;;2.90;1.10;;;11.00;90.40;;;;;;5066482;28;20484;-47
2023/11/16 05:15:10;;;;;;;2.40;1.00;;;10.90;90.40;;;;;;5067682;28;20543;-45
2023/11/16 05:17:39;;;;;;;2.90;1.13;;;10.90;90.40;;;;;;5065809;28;20557;-46
2023/11/16 05:20:08;;;;;;;2.03;0.80;;;10.90;90.30;;;;;;5061638;28;20889;-45
2023/11/16 05:22:37;;;;;;;2.50;1.20;;;10.90;90.40;;;;;;5067569;28;20435;-46
2023/11/16 05:25:07;;;;;;;2.00;0.93;;;10.90;90.40;;;;;;5065314;28;21001;-46
2023/11/16 05:27:35;;;;;;;2.17;1.20;;;10.90;90.40;;;;;;5067585;28;20456;-45
2023/11/16 05:30:07;;;;;;;1.40;0.80;;;10.90;90.40;;;;;;5068373;28;20986;-46
2023/11/16 05:32:36;;;;;;;3.90;1.17;;;10.90;90.30;;;;;;5064325;28;20484;-46
2023/11/16 05:35:05;;;;;;;2.00;1.03;;;10.90;90.30;;;;;;5068553;28;20549;-46
2023/11/16 05:37:33;;;;;;;1.67;0.80;;;10.90;90.30;;;;;;5067443;28;20454;-45
2023/11/16 05:40:03;;;;;;;1.97;1.20;;;10.90;90.30;;;;;;5064043;28;20466;-45
2023/11/16 05:42:31;;;;;;;3.60;1.37;;;10.90;90.30;;;;;;5066141;28;20434;-46
2023/11/16 05:45:03;;;;;;;1.97;1.10;;;10.90;90.30;;;;;;5061409;28;20458;-46
2023/11/16 05:47:31;;;;;;;1.97;1.20;;;10.90;90.40;;;;;;5066147;28;20512;-46
2023/11/16 05:50:01;;;;;;;2.80;1.10;;;10.90;90.30;;;;;;5057129;28;20474;-45
2023/11/16 05:52:29;;;;;;;2.00;1.30;;;10.90;90.20;;;;;;5066503;28;20489;-45
2023/11/16 05:54:57;;;;;;;4.50;1.40;;;10.90;90.20;;;;;;5065513;28;20898;-46
2023/11/16 05:57:25;;;;;;;3.23;1.30;;;10.90;90.10;;;;;;5068238;28;20971;-45
2023/11/16 05:59:56;;;;;;;5.27;1.63;;;10.90;90.20;;;;;;5066681;28;20555;-45
2023/11/16 06:02:24;;;;;;;2.43;1.10;;;10.90;90.20;;;;;;5066970;28;20433;-47
2023/11/16 06:04:53;;;;;;;2.10;1.30;;;10.90;90.20;;;;;;5064104;28;20529;-47
2023/11/16 06:07:22;;;;;;;3.90;0.97;;;10.90;90.20;;;;;;5067516;28;20490;-46
2023/11/16 06:09:50;;;;;;;2.50;1.47;;;10.90;90.20;;;;;;5063142;28;20472;-46
2023/11/16 06:12:19;;;;;;;1.60;1.20;;;10.80;90.20;;;;;;5067310;28;20425;-46
2023/11/16 06:14:55;;;;;;;2.67;1.47;;;10.80;90.10;;;;;;5067798;28;20477;-46
2023/11/16 06:17:23;;;;;;;2.17;1.00;;;10.90;90.20;;;;;;5066632;28;20462;-44
2023/11/16 06:19:52;;;;;;;2.10;1.00;;;10.80;90.10;;;;;;5065640;28;20465;-46
2023/11/16 06:22:21;;;;;;;4.40;1.33;;;10.90;90.20;;;;;;5067260;28;20423;-45
2023/11/16 06:24:49;;;;;;;1.27;0.90;;;10.90;90.20;;;;;;5065273;28;20475;-45
2023/11/16 06:27:19;;;;;;;2.40;1.07;;;10.90;90.20;;;;;;5069749;28;21010;-46
2023/11/16 06:29:48;;;;;;;2.53;1.00;;;10.90;90.20;;;;;;5066216;28;20564;-47
2023/11/16 06:32:16;;;;;;;2.03;0.87;;;10.80;90.20;;;;;;5063762;28;20477;-46
2023/11/16 06:34:44;;;;;;;1.97;0.80;;;10.80;90.20;;;;;;5067684;28;20560;-47
2023/11/16 06:37:13;;;;;;;1.83;1.03;;;10.80;90.20;;;;;;5066915;28;20492;-47
2023/11/16 06:39:42;;;;;;;2.27;0.80;;;10.80;90.20;;;;;;5062948;28;20475;-47
2023/11/16 06:42:10;;;;;;;2.40;1.10;;;10.80;90.20;;;;;;5067560;28;20873;-47
2023/11/16 06:44:38;;;;;;;1.30;0.90;;;10.80;90.20;;;;;;5065273;28;20500;-46
2023/11/16 06:47:06;;;;;;;1.17;0.80;;;10.80;90.20;;;;;;5068430;28;20448;-46
2023/11/16 06:49:34;;;;;;;1.73;1.10;;;10.80;90.20;;;;;;5064012;28;20463;-47
2023/11/16 06:52:04;;;;;;;3.10;1.20;;;10.80;90.20;;;;;;5069766;28;20436;-47
2023/11/16 06:54:33;;;;;;;1.30;0.60;;;10.80;90.20;;;;;;5062026;28;20562;-47
2023/11/16 06:57:06;;;;;;;1.37;0.90;;;10.80;90.20;;;;;;5062509;28;20438;-47
2023/11/16 06:59:35;;;;;;;2.50;1.13;;;10.80;90.00;;;;;;5066983;28;20484;-45
2023/11/16 07:02:07;;;;;;;2.87;1.07;;;10.80;89.90;;;;;;5066741;28;20440;-46
2023/11/16 07:04:41;;;;;;;2.57;1.43;;;10.80;90.00;;;;;;5080360;28;20466;-46
2023/11/16 07:07:10;;;;;;;2.07;1.20;;;10.80;90.00;;;;;;5067315;28;20450;-46
2023/11/16 07:09:38;;;;;;;1.40;0.90;;;10.80;89.90;;;;;;5063922;28;20868;-46
2023/11/16 07:12:10;;;;;;;8.03;1.70;;;10.80;90.00;;;;;;5067044;28;20429;-46
2023/11/16 07:14:41;;;;;;;4.10;1.60;;;10.80;90.40;;;;;;5064757;28;20471;-47
2023/11/16 07:17:20;;;;;;;1.37;0.80;;;10.80;90.00;;;;;;5066470;28;20447;-46
2023/11/16 07:19:52;;;;;;;4.20;1.00;;;10.70;90.00;;;;;;5064297;28;20806;-46
2023/11/16 07:22:20;;;;;;;2.40;1.10;;;10.80;90.10;;;;;;5066836;28;20431;-46
2023/11/16 07:24:50;;;;;;;2.50;1.30;;;10.70;90.00;;;;;;5063834;28;20521;-46
2023/11/16 07:27:20;;;;;;;2.43;1.13;;;10.80;90.00;;;;;;5062074;28;20492;-44
2023/11/16 07:29:48;;;;;;;3.77;1.50;;;10.80;90.10;;;;;;5063989;28;20483;-46
2023/11/16 07:32:16;;;;;;;5.23;2.03;;;10.70;89.90;;;;;;5067807;28;20435;-46
2023/11/16 07:34:47;;;;;;;4.43;1.23;;;10.80;89.90;;;;;;5067042;28;20467;-45
2023/11/16 07:37:15;;;;;;;1.43;0.90;;;10.80;89.80;;;;;;5066140;28;20870;-46
2023/11/16 07:39:44;;;;;;;3.80;1.40;;;10.80;90.00;;;;;;5060903;28;20524;-47
2023/11/16 07:42:14;;;;;;;6.53;4.10;;;10.80;90.00;;;;;;5067609;28;20434;-45
2023/11/16 07:44:44;;;;;;;6.07;3.37;;;10.70;90.00;;;;;;5066398;28;20500;-46
2023/11/16 07:47:15;;;;;;;3.07;1.73;;;10.80;90.00;;;;;;5067887;28;20545;-46
2023/11/16 07:49:45;;;;;;;6.63;4.30;;;10.80;90.00;;;;;;5062721;28;20476;-45
2023/11/16 07:52:20;;;;;;;5.80;4.30;;;10.80;89.90;;;;;;5066309;28;20436;-46
2023/11/16 07:55:09;;;;;;;4.70;2.97;;;10.80;90.00;;;;;;5058102;28;20564;-46
2023/11/16 07:57:57;;;;;;;2.40;1.50;;;10.70;89.50;;;;;;5067779;28;20462;-46
2023/11/16 08:00:55;;;;;;;3.10;1.90;;;10.70;89.70;;;;;;5067474;28;20579;-46
2023/11/16 08:03:42;;;;;;;2.63;1.87;;;10.70;89.60;;;;;;5063055;28;20446;-47
2023/11/16 08:06:35;;;;;;;1.83;1.40;;;10.70;89.70;;;;;;5070920;28;20593;-45
2023/11/16 08:09:23;;;;;;;2.77;1.63;;;10.70;89.80;;;;;;5063792;28;20990;-47
2023/11/16 08:12:10;;;;;;;2.87;1.50;;;10.70;89.80;;;;;;5066770;28;20571;-47
2023/11/16 08:14:57;;;;;;;2.90;2.00;;;10.70;90.00;;;;;;5066358;28;20849;-46
2023/11/16 08:17:45;;;;;;;3.37;2.47;;;10.70;89.60;;;;;;5065691;28;20450;-46
2023/11/16 08:20:35;;;;;;;3.93;1.80;;;10.70;89.40;;;;;;5065569;28;20454;-47
2023/11/16 08:23:22;;;;;;;4.37;1.83;;;10.70;89.30;;;;;;5067046;28;20555;-46
2023/11/16 08:26:10;;;;;;;4.70;2.03;;;10.70;89.40;;;;;;5064441;28;20473;-46
2023/11/16 08:28:57;;;;;;;2.10;1.30;;;10.70;89.60;;;;;;5068795;28;20938;-46
2023/11/16 08:31:52;;;;;;;2.60;1.50;;;10.70;89.50;;;;;;5070135;28;20755;-46
2023/11/16 08:34:44;;;;;;;3.07;1.53;;;10.70;89.70;;;;;;5062591;28;20513;-46
2023/11/16 08:37:33;;;;;;;1.70;1.03;;;10.70;89.50;;;;;;5069616;28;21030;-45
2023/11/16 08:40:23;;;;;;;6.03;2.13;;;10.70;89.40;;;;;;5061951;28;20840;-47
2023/11/16 08:43:12;;;;;;;2.10;1.67;;;10.70;89.50;;;;;;5064840;28;20777;-48
2023/11/16 08:45:59;;;;;;;3.90;2.15;;;10.70;89.60;;;;;;5061115;28;20811;-47
2023/11/16 08:48:49;;;;;;;3.40;2.13;;;10.70;89.70;;;;;;5064488;28;20300;-46
2023/11/16 08:51:47;;;;;;;5.90;2.20;;;10.70;89.50;;;;;;5068131;28;20991;-46
2023/11/16 08:54:38;;;;;;;4.67;2.50;;;10.70;89.40;;;;;;5065017;28;20844;-47
2023/11/16 08:57:29;;;;;;;3.10;1.80;;;10.70;89.40;;;;;;5069050;28;20457;-47
2023/11/16 09:00:33;;;;;;;2.83;1.60;;;10.70;89.30;;;;;;5062569;28;20945;-46
2023/11/16 09:03:25;;;;;;;3.20;1.80;;;10.70;89.60;;;;;;5060664;28;20938;-45
2023/11/16 09:05:56;;;;;;;2.90;2.20;;;10.70;89.60;;;;;;5067913;28;21069;-46
2023/11/16 09:08:33;;;;;;;2.77;2.13;;;10.70;89.70;;;;;;5069095;28;20433;-44
2023/11/16 09:11:05;;;;;;;2.60;1.90;;;10.70;89.50;;;;;;5060582;28;20480;-44
2023/11/16 09:13:33;;;;;;;3.77;2.00;;;10.70;89.60;;;;;;5067178;28;20492;-46
2023/11/16 09:16:02;;;;;;;4.13;1.87;;;10.70;89.60;;;;;;5068855;28;20510;-44
2023/11/16 09:18:31;;;;;;;5.67;1.97;;;10.70;89.50;;;;;;5060990;28;20535;-47
2023/11/16 09:21:02;;;;;;;4.27;1.80;;;10.70;89.40;;;;;;5060715;28;20550;-47
2023/11/16 09:23:34;;;;;;;4.60;1.80;;;10.70;89.70;;;;;;5067681;28;20938;-44
2023/11/16 09:26:04;;;;;;;5.23;1.77;;;10.60;89.50;;;;;;5061458;28;20478;-46
2023/11/16 09:28:35;;;;;;;3.00;1.57;;;10.70;89.70;;;;;;5067294;28;20509;-47
2023/11/16 09:31:10;;;;;;;2.53;1.77;;;10.70;89.80;;;;;;5067959;28;20474;-45
2023/11/16 09:33:41;;;;;;;3.03;1.80;;;10.70;89.80;;;;;;5059862;28;20444;-45
2023/11/16 09:36:14;;;;;;;2.43;1.73;;;10.60;89.70;;;;;;5068162;28;20479;-45
2023/11/16 09:38:44;;;;;;;3.27;1.83;;;10.70;89.80;;;;;;5067777;28;20438;-45
2023/11/16 09:41:21;;;;;;;2.80;1.70;;;10.60;89.70;;;;;;5063922;28;20573;-46
2023/11/16 09:43:54;;;;;;;2.83;1.80;;;10.60;89.90;;;;;;5059764;28;20800;-47
2023/11/16 09:46:26;;;;;;;3.37;1.90;;;10.60;89.80;;;;;;5065848;28;20809;-47
2023/11/16 09:48:55;;;;;;;3.43;1.90;;;10.60;90.00;;;;;;5064968;28;20819;-45
2023/11/16 09:51:24;;;;;;;3.70;1.80;;;10.60;90.00;;;;;;5066837;28;20455;-47
2023/11/16 09:53:59;;;;;;;3.03;1.47;;;10.60;90.00;;;;;;5066624;28;20441;-47
2023/11/16 09:56:30;;;;;;;3.07;1.53;;;10.60;90.00;;;;;;5065089;28;20528;-47
2023/11/16 09:59:13;;;;;;;4.60;2.00;;;10.60;89.80;;;;;;5061280;28;20516;-46
2023/11/16 10:01:46;;;;;;;2.23;1.40;;;10.70;89.90;;;;;;5068742;28;20437;-47
2023/11/16 10:04:16;;;;;;;3.33;1.50;;;10.60;89.90;;;;;;5066516;28;20467;-45
2023/11/16 10:06:48;;;;;;;5.07;1.97;;;10.60;89.80;;;;;;5067201;28;20450;-46
2023/11/16 10:09:23;;;;;;;2.70;1.70;;;10.60;89.90;;;;;;5066215;28;20569;-46
2023/11/16 10:11:57;;;;;;;4.20;1.60;;;10.60;89.90;;;;;;5066689;28;20832;-46
2023/11/16 10:14:26;;;;;;;3.67;2.17;;;10.60;90.00;;;;;;5063911;28;20450;-46
2023/11/16 10:16:56;;;;;;;2.90;2.40;;;10.60;89.90;;;;;;5068398;28;20458;-45
2023/11/16 10:19:26;;;;;;;3.93;1.73;;;10.60;89.90;;;;;;5064539;28;20456;-47
2023/11/16 10:21:59;;;;;;;4.13;2.13;;;10.60;90.00;;;;;;5068385;28;20492;-46
2023/11/16 10:24:28;;;;;;;3.67;1.20;;;10.60;90.00;;;;;;5054215;28;20472;-46
2023/11/16 10:26:59;;;;;;;2.00;1.60;;;10.60;90.00;;;;;;5068998;28;20466;-46
2023/11/16 10:29:27;;;;;;;4.00;1.87;;;10.60;90.00;;;;;;5064746;28;20465;-45
2023/11/16 10:32:02;;;;;;;2.90;1.90;;;10.60;90.00;;;;;;5055625;28;21007;-44
2023/11/16 10:34:33;;;;;;;2.70;1.70;;;10.60;89.90;;;;;;5058854;28;20461;-45
2023/11/16 10:37:04;;;;;;;2.90;1.60;;;10.60;89.90;;;;;;5061841;28;20546;-44
2023/11/16 10:39:38;;;;;;;3.70;1.47;;;10.60;89.90;;;;;;5063393;28;20491;-46
2023/11/16 10:42:08;;;;;;;3.83;1.47;;;10.60;90.00;;;;;;5062300;28;20787;-46
2023/11/16 10:44:39;;;;;;;2.50;1.47;;;10.60;90.00;;;;;;5065825;28;20572;-46
2023/11/16 10:47:10;;;;;;;2.80;1.53;;;10.60;90.00;;;;;;5065312;28;20467;-46
2023/11/16 10:49:39;;;;;;;4.47;1.80;;;10.60;90.00;;;;;;5064485;28;21002;-46
2023/11/16 10:52:08;;;;;;;5.27;2.47;;;10.60;90.00;;;;;;5068840;28;21061;-46
2023/11/16 10:54:40;;;;;;;2.80;1.83;;;10.60;90.00;;;;;;5063566;28;20509;-46
2023/11/16 10:57:10;;;;;;;2.33;1.37;;;10.60;90.00;;;;;;5064057;28;20470;-45
2023/11/16 10:59:42;;;;;;;4.37;1.20;;;10.60;90.00;;;;;;5066385;28;20462;-46
2023/11/16 11:02:12;;;;;;;2.27;1.37;;;10.60;90.00;;;;;;5064055;28;20973;-45
2023/11/16 11:04:43;;;;;;;2.20;1.30;;;10.60;90.00;;;;;;5064945;28;20477;-45
2023/11/16 11:07:13;;;;;;;2.37;1.73;;;10.60;90.00;;;;;;5067724;28;20464;-46
2023/11/16 11:09:43;;;;;;;1.90;1.23;;;10.60;90.00;;;;;;5062558;28;20468;-46
2023/11/16 11:12:15;;;;;;;2.13;1.23;;;10.60;90.00;;;;;;5067393;28;20459;-46
2023/11/16 11:14:46;;;;;;;2.53;1.43;;;10.60;90.00;;;;;;5066692;28;20454;-46
2023/11/16 11:17:19;;;;;;;2.60;1.57;;;10.60;90.00;;;;;;5062425;28;20542;-45
2023/11/16 11:19:58;;;;;;;1.90;1.27;;;10.60;90.00;;;;;;5065901;28;20827;-45
2023/11/16 11:22:28;;;;;;;8.43;1.73;;;10.60;90.00;;;;;;5068145;28;20411;-46
2023/11/16 11:24:59;;;;;;;4.80;1.77;;;10.60;90.00;;;;;;5064405;28;20468;-47
2023/11/16 11:27:31;;;;;;;7.60;2.30;;;10.60;90.00;;;;;;5062517;28;21976;-46
2023/11/16 11:30:08;;;;;;;2.90;1.67;;;10.60;90.00;;;;;;5058441;28;20641;-46
2023/11/16 11:32:47;;;;;;;2.77;1.77;;;10.60;90.00;;;;;;5066837;28;20470;-45
2023/11/16 11:35:34;;;;;;;3.03;1.90;;;10.60;90.00;;;;;;5067310;28;20804;-44
2023/11/16 11:38:04;;;;;;;2.20;1.37;;;10.60;90.00;;;;;;5068991;28;20461;-47
2023/11/16 11:40:34;;;;;;;1.87;1.37;;;10.60;90.00;;;;;;5066658;28;20496;-46
2023/11/16 11:43:04;;;;;;;2.83;1.40;;;10.60;90.00;;;;;;5064679;28;20426;-46
2023/11/16 11:45:35;;;;;;;2.27;1.10;;;10.60;90.00;;;;;;5070700;28;20990;-46
2023/11/16 11:48:06;;;;;;;2.10;1.40;;;10.60;90.00;;;;;;5064404;28;20454;-47
2023/11/16 11:50:37;;;;;;;1.70;1.00;;;10.60;90.00;;;;;;5062722;28;20843;-46
2023/11/16 11:53:09;;;;;;;2.97;1.40;;;10.60;90.00;;;;;;5071790;28;20540;-46
2023/11/16 11:55:46;;;;;;;3.20;2.90;;;10.60;90.00;;;;;;5066501;28;20500;-47
2023/11/16 11:58:20;;;;;;;2.87;1.50;;;10.60;90.00;;;;;;5068022;28;20448;-45
2023/11/16 12:00:52;;;;;;;2.53;1.40;;;10.60;90.00;;;;;;5070439;28;20469;-44
2023/11/16 12:03:21;;;;;;;2.83;1.40;;;10.60;90.00;;;;;;5070077;28;20442;-47
2023/11/16 12:06:00;;;;;;;3.13;1.80;;;10.60;90.00;;;;;;5070375;28;21006;-46
2023/11/16 12:08:41;;;;;;;2.60;1.67;;;10.60;90.00;;;;;;5070981;28;20439;-45
2023/11/16 12:11:12;;;;;;;2.50;1.50;;;10.60;90.10;;;;;;5061431;28;20478;-44
2023/11/16 12:13:42;;;;;;;2.30;1.60;;;10.50;90.00;;;;;;5068739;28;20457;-45
2023/11/16 12:16:12;;;;;;;3.90;1.50;;;10.60;90.00;;;;;;5070744;28;20820;-45
2023/11/16 12:18:45;;;;;;;2.60;1.40;;;10.60;90.00;;;;;;5063870;28;20535;-46
2023/11/16 12:21:14;;;;;;;4.60;1.43;;;10.60;90.00;;;;;;5070075;28;20468;-46
2023/11/16 12:23:47;;;;;;;1.80;1.30;;;10.60;89.90;;;;;;5070521;28;20427;-45
2023/11/16 12:26:19;;;;;;;3.03;1.83;;;10.60;90.00;;;;;;5066718;28;20505;-46
2023/11/16 12:28:47;;;;;;;3.30;2.07;;;10.60;90.00;;;;;;5070484;28;20470;-47
2023/11/16 12:31:17;;;;;;;2.00;1.20;;;10.60;90.30;;;;;;5069806;28;20474;-45
2023/11/16 12:33:50;;;;;;;2.37;1.50;;;10.50;90.10;;;;;;5067834;28;20471;-46
2023/11/16 12:36:20;;;;;;;1.93;1.00;;;10.50;90.10;;;;;;5071207;28;20450;-44
2023/11/16 12:38:49;;;;;;;4.87;1.60;;;10.60;90.00;;;;;;5070228;28;20485;-46
2023/11/16 12:41:22;;;;;;;3.83;1.83;;;10.60;90.00;;;;;;5065743;28;20491;-46
2023/11/16 12:43:53;;;;;;;3.33;2.07;;;10.60;90.10;;;;;;5070433;28;20438;-45
2023/11/16 12:46:24;;;;;;;3.60;1.60;;;10.60;90.20;;;;;;5070202;28;20545;-45
2023/11/16 12:48:52;;;;;;;3.20;2.17;;;10.60;90.10;;;;;;5064170;28;21014;-46
2023/11/16 12:51:22;;;;;;;2.03;1.23;;;10.60;90.10;;;;;;5069797;28;20554;-45
2023/11/16 12:53:50;;;;;;;2.40;1.47;;;10.50;90.00;;;;;;5060906;28;20473;-44
2023/11/16 12:56:20;;;;;;;2.87;1.20;;;10.50;90.00;;;;;;5065067;28;20991;-45
2023/11/16 12:58:49;;;;;;;3.10;1.70;;;10.60;90.10;;;;;;5070106;28;20455;-46
2023/11/16 13:01:19;;;;;;;1.97;1.13;;;10.50;90.10;;;;;;5070110;28;20443;-46
2023/11/16 13:03:51;;;;;;;2.90;1.47;;;10.50;90.00;;;;;;5066480;28;20443;-44
2023/11/16 13:06:24;;;;;;;2.77;1.60;;;10.50;90.00;;;;;;5070228;28;20461;-46
2023/11/16 13:08:52;;;;;;;3.67;1.60;;;10.50;90.70;;;;;;5069993;28;20461;-46
2023/11/16 13:11:22;;;;;;;3.17;2.00;;;10.50;90.10;;;;;;5065829;28;20738;-44